sensor_id;sensor_type;location;lat;lon;timestamp;P1;durP1;ratioP1;P2;durP2;ratioP2
54259;SDS011;40172;53.022;7.012;2022-07-23T00:01:21;8.80;;;5.75;;
54259;SDS011;40172;53.022;7.012;2022-07-23T00:03:48;10.57;;;5.60;;
54259;SDS011;40172;53.022;7.012;2022-07-23T00:06:14;12.55;;;5.40;;
54259;SDS011;40172;53.022;7.012;2022-07-23T00:08:40;11.25;;;5.22;;
54259;SDS011;40172;53.022;7.012;2022-07-23T00:11:06;10.27;;;4.70;;
54259;SDS011;40172;53.022;7.012;2022-07-23T00:13:31;8.82;;;5.10;;
54259;SDS011;40172;53.022;7.012;2022-07-23T00:15:57;9.93;;;4.97;;
54259;SDS011;40172;53.022;7.012;2022-07-23T00:18:22;8.40;;;4.85;;
54259;SDS011;40172;53.022;7.012;2022-07-23T00:20:48;11.30;;;4.97;;
54259;SDS011;40172;53.022;7.012;2022-07-23T00:23:14;15.10;;;5.40;;
54259;SDS011;40172;53.022;7.012;2022-07-23T00:25:40;11.30;;;4.95;;
54259;SDS011;40172;53.022;7.012;2022-07-23T00:28:05;5.97;;;4.93;;
54259;SDS011;40172;53.022;7.012;2022-07-23T00:30:31;11.65;;;4.35;;
54259;SDS011;40172;53.022;7.012;2022-07-23T00:33:01;12.05;;;4.28;;
54259;SDS011;40172;53.022;7.012;2022-07-23T00:35:30;14.70;;;4.18;;
54259;SDS011;40172;53.022;7.012;2022-07-23T00:37:58;11.38;;;4.13;;
54259;SDS011;40172;53.022;7.012;2022-07-23T00:40:24;7.05;;;3.95;;
54259;SDS011;40172;53.022;7.012;2022-07-23T00:42:50;8.63;;;4.25;;
54259;SDS011;40172;53.022;7.012;2022-07-23T00:45:16;10.18;;;4.32;;
54259;SDS011;40172;53.022;7.012;2022-07-23T00:47:42;8.77;;;4.50;;
54259;SDS011;40172;53.022;7.012;2022-07-23T00:50:08;8.82;;;4.65;;
54259;SDS011;40172;53.022;7.012;2022-07-23T00:52:34;11.48;;;4.50;;
54259;SDS011;40172;53.022;7.012;2022-07-23T00:55:01;11.27;;;4.38;;
54259;SDS011;40172;53.022;7.012;2022-07-23T00:57:27;12.20;;;4.50;;
54259;SDS011;40172;53.022;7.012;2022-07-23T00:59:53;8.73;;;4.30;;
54259;SDS011;40172;53.022;7.012;2022-07-23T01:02:18;8.07;;;4.20;;
54259;SDS011;40172;53.022;7.012;2022-07-23T01:04:44;13.63;;;4.70;;
54259;SDS011;40172;53.022;7.012;2022-07-23T01:07:10;10.85;;;4.80;;
54259;SDS011;40172;53.022;7.012;2022-07-23T01:09:36;9.23;;;4.72;;
54259;SDS011;40172;53.022;7.012;2022-07-23T01:12:02;10.98;;;4.97;;
54259;SDS011;40172;53.022;7.012;2022-07-23T01:14:29;7.28;;;4.70;;
54259;SDS011;40172;53.022;7.012;2022-07-23T01:16:54;11.10;;;5.10;;
54259;SDS011;40172;53.022;7.012;2022-07-23T01:19:20;12.75;;;4.90;;
54259;SDS011;40172;53.022;7.012;2022-07-23T01:21:47;8.45;;;5.15;;
54259;SDS011;40172;53.022;7.012;2022-07-23T01:24:15;10.93;;;5.10;;
54259;SDS011;40172;53.022;7.012;2022-07-23T01:26:42;12.05;;;5.55;;
54259;SDS011;40172;53.022;7.012;2022-07-23T01:29:09;8.80;;;5.13;;
54259;SDS011;40172;53.022;7.012;2022-07-23T01:31:36;12.15;;;5.07;;
54259;SDS011;40172;53.022;7.012;2022-07-23T01:34:01;9.43;;;5.55;;
54259;SDS011;40172;53.022;7.012;2022-07-23T01:36:27;14.80;;;5.40;;
54259;SDS011;40172;53.022;7.012;2022-07-23T01:38:53;11.30;;;5.70;;
54259;SDS011;40172;53.022;7.012;2022-07-23T01:41:19;8.70;;;5.50;;
54259;SDS011;40172;53.022;7.012;2022-07-23T01:43:45;9.43;;;5.22;;
54259;SDS011;40172;53.022;7.012;2022-07-23T01:46:10;10.40;;;5.75;;
54259;SDS011;40172;53.022;7.012;2022-07-23T01:48:36;17.73;;;6.50;;
54259;SDS011;40172;53.022;7.012;2022-07-23T01:51:02;11.65;;;5.78;;
54259;SDS011;40172;53.022;7.012;2022-07-23T01:53:27;10.18;;;5.70;;
54259;SDS011;40172;53.022;7.012;2022-07-23T01:55:56;10.18;;;5.90;;
54259;SDS011;40172;53.022;7.012;2022-07-23T01:58:22;12.82;;;5.43;;
54259;SDS011;40172;53.022;7.012;2022-07-23T02:00:47;13.65;;;6.07;;
54259;SDS011;40172;53.022;7.012;2022-07-23T02:03:13;11.18;;;6.00;;
54259;SDS011;40172;53.022;7.012;2022-07-23T02:05:39;12.73;;;5.72;;
54259;SDS011;40172;53.022;7.012;2022-07-23T02:08:05;9.48;;;5.70;;
54259;SDS011;40172;53.022;7.012;2022-07-23T02:10:30;9.65;;;5.85;;
54259;SDS011;40172;53.022;7.012;2022-07-23T02:12:56;17.20;;;6.70;;
54259;SDS011;40172;53.022;7.012;2022-07-23T02:15:22;11.38;;;5.88;;
54259;SDS011;40172;53.022;7.012;2022-07-23T02:17:48;15.85;;;6.38;;
54259;SDS011;40172;53.022;7.012;2022-07-23T02:20:14;13.35;;;6.60;;
54259;SDS011;40172;53.022;7.012;2022-07-23T02:22:39;10.98;;;6.25;;
54259;SDS011;40172;53.022;7.012;2022-07-23T02:25:05;14.60;;;6.78;;
54259;SDS011;40172;53.022;7.012;2022-07-23T02:27:32;10.57;;;6.03;;
54259;SDS011;40172;53.022;7.012;2022-07-23T02:29:58;13.55;;;6.30;;
54259;SDS011;40172;53.022;7.012;2022-07-23T02:32:24;16.52;;;6.05;;
54259;SDS011;40172;53.022;7.012;2022-07-23T02:34:50;12.38;;;6.70;;
54259;SDS011;40172;53.022;7.012;2022-07-23T02:37:16;11.48;;;6.43;;
54259;SDS011;40172;53.022;7.012;2022-07-23T02:39:42;13.20;;;5.90;;
54259;SDS011;40172;53.022;7.012;2022-07-23T02:42:07;11.70;;;6.72;;
54259;SDS011;40172;53.022;7.012;2022-07-23T02:44:33;13.48;;;7.00;;
54259;SDS011;40172;53.022;7.012;2022-07-23T02:46:59;10.38;;;6.90;;
54259;SDS011;40172;53.022;7.012;2022-07-23T02:49:24;13.73;;;7.07;;
54259;SDS011;40172;53.022;7.012;2022-07-23T02:51:50;13.35;;;6.80;;
54259;SDS011;40172;53.022;7.012;2022-07-23T02:54:16;13.60;;;6.43;;
54259;SDS011;40172;53.022;7.012;2022-07-23T02:56:42;13.55;;;6.75;;
54259;SDS011;40172;53.022;7.012;2022-07-23T02:59:07;9.55;;;6.65;;
54259;SDS011;40172;53.022;7.012;2022-07-23T03:01:33;13.85;;;7.00;;
54259;SDS011;40172;53.022;7.012;2022-07-23T03:03:59;11.80;;;7.13;;
54259;SDS011;40172;53.022;7.012;2022-07-23T03:06:25;12.45;;;7.55;;
54259;SDS011;40172;53.022;7.012;2022-07-23T03:08:50;11.15;;;7.55;;
54259;SDS011;40172;53.022;7.012;2022-07-23T03:11:16;16.77;;;7.95;;
54259;SDS011;40172;53.022;7.012;2022-07-23T03:13:42;13.88;;;7.55;;
54259;SDS011;40172;53.022;7.012;2022-07-23T03:16:07;13.05;;;7.35;;
54259;SDS011;40172;53.022;7.012;2022-07-23T03:18:33;12.57;;;7.47;;
54259;SDS011;40172;53.022;7.012;2022-07-23T03:20:59;12.13;;;7.28;;
54259;SDS011;40172;53.022;7.012;2022-07-23T03:23:24;11.27;;;7.60;;
54259;SDS011;40172;53.022;7.012;2022-07-23T03:25:50;15.30;;;8.25;;
54259;SDS011;40172;53.022;7.012;2022-07-23T03:28:16;15.90;;;8.70;;
54259;SDS011;40172;53.022;7.012;2022-07-23T03:30:46;13.10;;;8.20;;
54259;SDS011;40172;53.022;7.012;2022-07-23T03:33:13;14.80;;;8.38;;
54259;SDS011;40172;53.022;7.012;2022-07-23T03:35:43;17.05;;;9.30;;
54259;SDS011;40172;53.022;7.012;2022-07-23T03:38:09;18.77;;;8.48;;
54259;SDS011;40172;53.022;7.012;2022-07-23T03:40:35;16.15;;;9.15;;
54259;SDS011;40172;53.022;7.012;2022-07-23T03:43:01;18.48;;;8.70;;
54259;SDS011;40172;53.022;7.012;2022-07-23T03:45:26;15.85;;;9.23;;
54259;SDS011;40172;53.022;7.012;2022-07-23T03:47:52;15.35;;;8.60;;
54259;SDS011;40172;53.022;7.012;2022-07-23T03:50:18;12.85;;;8.63;;
54259;SDS011;40172;53.022;7.012;2022-07-23T03:52:44;14.23;;;8.38;;
54259;SDS011;40172;53.022;7.012;2022-07-23T03:55:10;17.55;;;8.25;;
54259;SDS011;40172;53.022;7.012;2022-07-23T03:57:35;13.23;;;7.85;;
54259;SDS011;40172;53.022;7.012;2022-07-23T04:00:02;17.73;;;7.57;;
54259;SDS011;40172;53.022;7.012;2022-07-23T04:02:30;20.05;;;8.32;;
54259;SDS011;40172;53.022;7.012;2022-07-23T04:04:55;14.27;;;8.18;;
54259;SDS011;40172;53.022;7.012;2022-07-23T04:07:21;17.13;;;8.15;;
54259;SDS011;40172;53.022;7.012;2022-07-23T04:09:47;20.00;;;8.20;;
54259;SDS011;40172;53.022;7.012;2022-07-23T04:12:12;12.65;;;8.35;;
54259;SDS011;40172;53.022;7.012;2022-07-23T04:14:38;14.30;;;8.25;;
54259;SDS011;40172;53.022;7.012;2022-07-23T04:17:04;13.52;;;8.63;;
54259;SDS011;40172;53.022;7.012;2022-07-23T04:19:30;12.45;;;8.30;;
54259;SDS011;40172;53.022;7.012;2022-07-23T04:21:55;19.83;;;8.93;;
54259;SDS011;40172;53.022;7.012;2022-07-23T04:24:22;15.40;;;8.15;;
54259;SDS011;40172;53.022;7.012;2022-07-23T04:26:47;11.98;;;7.97;;
54259;SDS011;40172;53.022;7.012;2022-07-23T04:29:13;15.52;;;8.10;;
54259;SDS011;40172;53.022;7.012;2022-07-23T04:31:39;12.45;;;7.60;;
54259;SDS011;40172;53.022;7.012;2022-07-23T04:34:04;10.98;;;7.50;;
54259;SDS011;40172;53.022;7.012;2022-07-23T04:36:30;15.20;;;7.50;;
54259;SDS011;40172;53.022;7.012;2022-07-23T04:38:56;9.85;;;7.25;;
54259;SDS011;40172;53.022;7.012;2022-07-23T04:41:21;11.95;;;7.13;;
54259;SDS011;40172;53.022;7.012;2022-07-23T04:43:47;10.63;;;6.90;;
54259;SDS011;40172;53.022;7.012;2022-07-23T04:46:12;10.95;;;7.07;;
54259;SDS011;40172;53.022;7.012;2022-07-23T04:48:38;13.45;;;6.97;;
54259;SDS011;40172;53.022;7.012;2022-07-23T04:51:04;11.00;;;6.70;;
54259;SDS011;40172;53.022;7.012;2022-07-23T04:53:30;9.40;;;7.05;;
54259;SDS011;40172;53.022;7.012;2022-07-23T04:55:56;14.65;;;6.80;;
54259;SDS011;40172;53.022;7.012;2022-07-23T04:58:22;16.10;;;7.22;;
54259;SDS011;40172;53.022;7.012;2022-07-23T05:00:47;15.07;;;6.93;;
54259;SDS011;40172;53.022;7.012;2022-07-23T05:03:13;16.13;;;7.03;;
54259;SDS011;40172;53.022;7.012;2022-07-23T05:05:39;9.80;;;6.88;;
54259;SDS011;40172;53.022;7.012;2022-07-23T05:08:05;13.27;;;7.00;;
54259;SDS011;40172;53.022;7.012;2022-07-23T05:10:30;9.45;;;6.68;;
54259;SDS011;40172;53.022;7.012;2022-07-23T05:12:56;11.40;;;6.63;;
54259;SDS011;40172;53.022;7.012;2022-07-23T05:15:22;13.30;;;7.50;;
54259;SDS011;40172;53.022;7.012;2022-07-23T05:17:47;11.23;;;6.53;;
54259;SDS011;40172;53.022;7.012;2022-07-23T05:20:13;9.30;;;6.90;;
54259;SDS011;40172;53.022;7.012;2022-07-23T05:22:39;8.52;;;6.53;;
54259;SDS011;40172;53.022;7.012;2022-07-23T05:25:05;11.80;;;6.90;;
54259;SDS011;40172;53.022;7.012;2022-07-23T05:27:31;18.40;;;6.88;;
54259;SDS011;40172;53.022;7.012;2022-07-23T05:29:57;11.32;;;6.82;;
54259;SDS011;40172;53.022;7.012;2022-07-23T05:32:22;10.23;;;6.30;;
54259;SDS011;40172;53.022;7.012;2022-07-23T05:34:48;11.30;;;6.30;;
54259;SDS011;40172;53.022;7.012;2022-07-23T05:37:14;13.55;;;6.35;;
54259;SDS011;40172;53.022;7.012;2022-07-23T05:39:40;13.60;;;6.47;;
54259;SDS011;40172;53.022;7.012;2022-07-23T05:42:05;11.75;;;6.75;;
54259;SDS011;40172;53.022;7.012;2022-07-23T05:44:31;14.20;;;6.60;;
54259;SDS011;40172;53.022;7.012;2022-07-23T05:46:57;15.75;;;6.13;;
54259;SDS011;40172;53.022;7.012;2022-07-23T05:49:22;14.98;;;6.97;;
54259;SDS011;40172;53.022;7.012;2022-07-23T05:51:48;12.32;;;6.40;;
54259;SDS011;40172;53.022;7.012;2022-07-23T05:54:14;13.38;;;6.47;;
54259;SDS011;40172;53.022;7.012;2022-07-23T05:56:40;8.68;;;5.82;;
54259;SDS011;40172;53.022;7.012;2022-07-23T05:59:05;11.02;;;6.40;;
54259;SDS011;40172;53.022;7.012;2022-07-23T06:01:31;8.02;;;5.53;;
54259;SDS011;40172;53.022;7.012;2022-07-23T06:03:56;12.13;;;5.45;;
54259;SDS011;40172;53.022;7.012;2022-07-23T06:06:22;13.00;;;5.70;;
54259;SDS011;40172;53.022;7.012;2022-07-23T06:08:48;12.95;;;5.78;;
54259;SDS011;40172;53.022;7.012;2022-07-23T06:11:13;8.13;;;5.10;;
54259;SDS011;40172;53.022;7.012;2022-07-23T06:13:39;7.85;;;4.95;;
54259;SDS011;40172;53.022;7.012;2022-07-23T06:16:05;10.38;;;5.07;;
54259;SDS011;40172;53.022;7.012;2022-07-23T06:18:30;10.88;;;6.20;;
54259;SDS011;40172;53.022;7.012;2022-07-23T06:20:56;11.23;;;5.10;;
54259;SDS011;40172;53.022;7.012;2022-07-23T06:23:21;7.97;;;5.30;;
54259;SDS011;40172;53.022;7.012;2022-07-23T06:25:47;11.43;;;4.72;;
54259;SDS011;40172;53.022;7.012;2022-07-23T06:28:13;9.90;;;5.10;;
54259;SDS011;40172;53.022;7.012;2022-07-23T06:30:38;7.70;;;4.70;;
54259;SDS011;40172;53.022;7.012;2022-07-23T06:33:04;10.80;;;4.93;;
54259;SDS011;40172;53.022;7.012;2022-07-23T06:35:31;9.38;;;4.40;;
54259;SDS011;40172;53.022;7.012;2022-07-23T06:37:58;9.30;;;4.82;;
54259;SDS011;40172;53.022;7.012;2022-07-23T06:40:24;7.28;;;4.10;;
54259;SDS011;40172;53.022;7.012;2022-07-23T06:42:49;7.00;;;4.55;;
54259;SDS011;40172;53.022;7.012;2022-07-23T06:45:15;7.78;;;4.22;;
54259;SDS011;40172;53.022;7.012;2022-07-23T06:47:40;9.80;;;4.40;;
54259;SDS011;40172;53.022;7.012;2022-07-23T06:50:06;10.02;;;4.13;;
54259;SDS011;40172;53.022;7.012;2022-07-23T06:52:32;6.32;;;3.67;;
54259;SDS011;40172;53.022;7.012;2022-07-23T06:54:58;8.15;;;3.90;;
54259;SDS011;40172;53.022;7.012;2022-07-23T06:57:23;7.40;;;3.42;;
54259;SDS011;40172;53.022;7.012;2022-07-23T06:59:50;6.30;;;3.72;;
54259;SDS011;40172;53.022;7.012;2022-07-23T07:02:16;6.63;;;3.50;;
54259;SDS011;40172;53.022;7.012;2022-07-23T07:04:42;10.98;;;4.03;;
54259;SDS011;40172;53.022;7.012;2022-07-23T07:07:07;5.65;;;3.00;;
54259;SDS011;40172;53.022;7.012;2022-07-23T07:09:33;5.20;;;2.85;;
54259;SDS011;40172;53.022;7.012;2022-07-23T07:11:58;7.97;;;2.80;;
54259;SDS011;40172;53.022;7.012;2022-07-23T07:14:24;6.18;;;2.80;;
54259;SDS011;40172;53.022;7.012;2022-07-23T07:16:50;6.50;;;2.75;;
54259;SDS011;40172;53.022;7.012;2022-07-23T07:19:16;7.95;;;2.97;;
54259;SDS011;40172;53.022;7.012;2022-07-23T07:21:42;5.18;;;2.17;;
54259;SDS011;40172;53.022;7.012;2022-07-23T07:24:07;9.10;;;2.50;;
54259;SDS011;40172;53.022;7.012;2022-07-23T07:26:33;6.13;;;2.22;;
54259;SDS011;40172;53.022;7.012;2022-07-23T07:28:59;4.20;;;2.30;;
54259;SDS011;40172;53.022;7.012;2022-07-23T07:31:25;5.43;;;2.60;;
54259;SDS011;40172;53.022;7.012;2022-07-23T07:33:51;4.32;;;1.90;;
54259;SDS011;40172;53.022;7.012;2022-07-23T07:36:16;5.90;;;1.92;;
54259;SDS011;40172;53.022;7.012;2022-07-23T07:38:42;6.10;;;2.10;;
54259;SDS011;40172;53.022;7.012;2022-07-23T07:41:07;5.05;;;2.08;;
54259;SDS011;40172;53.022;7.012;2022-07-23T07:43:35;6.78;;;2.05;;
54259;SDS011;40172;53.022;7.012;2022-07-23T07:46:01;4.03;;;1.52;;
54259;SDS011;40172;53.022;7.012;2022-07-23T07:48:28;5.25;;;1.73;;
54259;SDS011;40172;53.022;7.012;2022-07-23T07:50:53;2.25;;;1.00;;
54259;SDS011;40172;53.022;7.012;2022-07-23T07:53:19;4.10;;;1.30;;
54259;SDS011;40172;53.022;7.012;2022-07-23T07:55:44;4.43;;;1.27;;
54259;SDS011;40172;53.022;7.012;2022-07-23T07:58:10;3.42;;;1.10;;
54259;SDS011;40172;53.022;7.012;2022-07-23T08:00:36;5.57;;;1.00;;
54259;SDS011;40172;53.022;7.012;2022-07-23T08:03:02;4.18;;;1.17;;
54259;SDS011;40172;53.022;7.012;2022-07-23T08:05:28;2.40;;;1.08;;
54259;SDS011;40172;53.022;7.012;2022-07-23T08:07:55;2.33;;;0.90;;
54259;SDS011;40172;53.022;7.012;2022-07-23T08:10:23;2.08;;;0.80;;
54259;SDS011;40172;53.022;7.012;2022-07-23T08:12:50;2.03;;;0.90;;
54259;SDS011;40172;53.022;7.012;2022-07-23T08:15:18;3.20;;;1.00;;
54259;SDS011;40172;53.022;7.012;2022-07-23T08:17:46;2.10;;;0.57;;
54259;SDS011;40172;53.022;7.012;2022-07-23T08:20:13;1.20;;;0.70;;
54259;SDS011;40172;53.022;7.012;2022-07-23T08:22:47;4.07;;;1.05;;
54259;SDS011;40172;53.022;7.012;2022-07-23T08:25:19;3.83;;;0.80;;
54259;SDS011;40172;53.022;7.012;2022-07-23T08:27:46;2.88;;;0.73;;
54259;SDS011;40172;53.022;7.012;2022-07-23T08:30:12;1.55;;;0.70;;
54259;SDS011;40172;53.022;7.012;2022-07-23T08:32:52;2.05;;;0.80;;
54259;SDS011;40172;53.022;7.012;2022-07-23T08:35:24;2.35;;;0.70;;
54259;SDS011;40172;53.022;7.012;2022-07-23T08:37:51;1.98;;;0.68;;
54259;SDS011;40172;53.022;7.012;2022-07-23T08:40:17;1.33;;;0.73;;
54259;SDS011;40172;53.022;7.012;2022-07-23T08:42:44;2.80;;;0.70;;
54259;SDS011;40172;53.022;7.012;2022-07-23T08:45:12;3.42;;;0.70;;
54259;SDS011;40172;53.022;7.012;2022-07-23T08:47:40;3.47;;;0.70;;
54259;SDS011;40172;53.022;7.012;2022-07-23T08:50:06;2.13;;;0.75;;
54259;SDS011;40172;53.022;7.012;2022-07-23T08:52:33;2.03;;;0.95;;
54259;SDS011;40172;53.022;7.012;2022-07-23T08:54:59;4.30;;;0.57;;
54259;SDS011;40172;53.022;7.012;2022-07-23T08:57:25;0.95;;;0.50;;
54259;SDS011;40172;53.022;7.012;2022-07-23T08:59:51;2.08;;;0.70;;
54259;SDS011;40172;53.022;7.012;2022-07-23T09:02:16;0.68;;;0.45;;
54259;SDS011;40172;53.022;7.012;2022-07-23T09:04:42;2.30;;;0.70;;
54259;SDS011;40172;53.022;7.012;2022-07-23T09:07:08;1.63;;;0.70;;
54259;SDS011;40172;53.022;7.012;2022-07-23T09:09:34;0.85;;;0.55;;
54259;SDS011;40172;53.022;7.012;2022-07-23T09:12:04;2.00;;;0.50;;
54259;SDS011;40172;53.022;7.012;2022-07-23T09:14:44;2.03;;;0.50;;
54259;SDS011;40172;53.022;7.012;2022-07-23T09:17:14;2.13;;;0.60;;
54259;SDS011;40172;53.022;7.012;2022-07-23T09:19:42;0.80;;;0.70;;
54259;SDS011;40172;53.022;7.012;2022-07-23T09:22:23;1.02;;;0.60;;
54259;SDS011;40172;53.022;7.012;2022-07-23T09:25:08;1.73;;;0.60;;
54259;SDS011;40172;53.022;7.012;2022-07-23T09:30:15;1.33;;;0.63;;
54259;SDS011;40172;53.022;7.012;2022-07-23T09:32:41;1.90;;;0.60;;
54259;SDS011;40172;53.022;7.012;2022-07-23T09:35:07;3.75;;;0.80;;
54259;SDS011;40172;53.022;7.012;2022-07-23T09:37:33;2.72;;;0.63;;
54259;SDS011;40172;53.022;7.012;2022-07-23T09:40:03;0.82;;;0.50;;
54259;SDS011;40172;53.022;7.012;2022-07-23T09:42:34;2.70;;;0.60;;
54259;SDS011;40172;53.022;7.012;2022-07-23T09:45:00;1.63;;;0.70;;
54259;SDS011;40172;53.022;7.012;2022-07-23T09:47:27;4.60;;;0.75;;
54259;SDS011;40172;53.022;7.012;2022-07-23T09:49:58;2.05;;;0.70;;
54259;SDS011;40172;53.022;7.012;2022-07-23T09:52:35;0.80;;;0.55;;
54259;SDS011;40172;53.022;7.012;2022-07-23T09:55:08;1.55;;;0.70;;
54259;SDS011;40172;53.022;7.012;2022-07-23T09:57:34;2.42;;;0.70;;
54259;SDS011;40172;53.022;7.012;2022-07-23T10:00:01;2.25;;;0.60;;
54259;SDS011;40172;53.022;7.012;2022-07-23T10:02:30;1.60;;;0.70;;
54259;SDS011;40172;53.022;7.012;2022-07-23T10:04:57;1.75;;;0.65;;
54259;SDS011;40172;53.022;7.012;2022-07-23T10:07:24;2.03;;;0.80;;
54259;SDS011;40172;53.022;7.012;2022-07-23T10:09:52;1.45;;;0.60;;
54259;SDS011;40172;53.022;7.012;2022-07-23T10:12:19;0.70;;;0.50;;
54259;SDS011;40172;53.022;7.012;2022-07-23T10:14:45;1.45;;;0.70;;
54259;SDS011;40172;53.022;7.012;2022-07-23T10:17:11;5.65;;;0.70;;
54259;SDS011;40172;53.022;7.012;2022-07-23T10:19:37;1.75;;;0.60;;
54259;SDS011;40172;53.022;7.012;2022-07-23T10:22:05;2.22;;;0.60;;
54259;SDS011;40172;53.022;7.012;2022-07-23T10:35:34;1.48;;;0.60;;
54259;SDS011;40172;53.022;7.012;2022-07-23T10:38:37;2.97;;;0.88;;
54259;SDS011;40172;53.022;7.012;2022-07-23T10:41:00;1.65;;;0.60;;
54259;SDS011;40172;53.022;7.012;2022-07-23T10:43:27;2.47;;;0.60;;
54259;SDS011;40172;53.022;7.012;2022-07-23T10:45:56;1.02;;;0.57;;
54259;SDS011;40172;53.022;7.012;2022-07-23T10:48:46;3.03;;;0.80;;
54259;SDS011;40172;53.022;7.012;2022-07-23T10:54:49;0.70;;;0.60;;
54259;SDS011;40172;53.022;7.012;2022-07-23T10:57:17;4.22;;;1.15;;
54259;SDS011;40172;53.022;7.012;2022-07-23T11:02:35;3.88;;;0.82;;
54259;SDS011;40172;53.022;7.012;2022-07-23T11:07:34;2.22;;;0.88;;
54259;SDS011;40172;53.022;7.012;2022-07-23T11:10:00;2.97;;;0.70;;
54259;SDS011;40172;53.022;7.012;2022-07-23T11:15:03;1.75;;;0.80;;
54259;SDS011;40172;53.022;7.012;2022-07-23T11:17:36;2.00;;;0.80;;
54259;SDS011;40172;53.022;7.012;2022-07-23T11:22:41;5.05;;;0.90;;
54259;SDS011;40172;53.022;7.012;2022-07-23T11:25:29;3.60;;;0.80;;
54259;SDS011;40172;53.022;7.012;2022-07-23T11:28:12;3.17;;;0.90;;
54259;SDS011;40172;53.022;7.012;2022-07-23T11:30:43;3.17;;;0.90;;
54259;SDS011;40172;53.022;7.012;2022-07-23T11:35:36;2.55;;;1.02;;
54259;SDS011;40172;53.022;7.012;2022-07-23T11:38:07;2.33;;;0.77;;
54259;SDS011;40172;53.022;7.012;2022-07-23T11:40:38;2.70;;;1.00;;
54259;SDS011;40172;53.022;7.012;2022-07-23T11:43:05;6.72;;;1.20;;
54259;SDS011;40172;53.022;7.012;2022-07-23T11:45:36;1.60;;;0.88;;
54259;SDS011;40172;53.022;7.012;2022-07-23T11:48:04;3.53;;;1.00;;
54259;SDS011;40172;53.022;7.012;2022-07-23T11:50:31;4.03;;;1.05;;
54259;SDS011;40172;53.022;7.012;2022-07-23T11:52:57;5.93;;;1.10;;
54259;SDS011;40172;53.022;7.012;2022-07-23T11:55:23;2.78;;;0.70;;
54259;SDS011;40172;53.022;7.012;2022-07-23T11:57:50;1.73;;;1.00;;
54259;SDS011;40172;53.022;7.012;2022-07-23T12:00:18;2.33;;;0.95;;
54259;SDS011;40172;53.022;7.012;2022-07-23T12:02:47;7.35;;;1.10;;
54259;SDS011;40172;53.022;7.012;2022-07-23T12:05:16;2.00;;;1.17;;
54259;SDS011;40172;53.022;7.012;2022-07-23T12:07:44;4.53;;;1.23;;
54259;SDS011;40172;53.022;7.012;2022-07-23T12:10:18;2.88;;;0.98;;
54259;SDS011;40172;53.022;7.012;2022-07-23T12:12:50;1.63;;;0.93;;
54259;SDS011;40172;53.022;7.012;2022-07-23T12:15:18;2.85;;;1.33;;
54259;SDS011;40172;53.022;7.012;2022-07-23T12:17:49;2.33;;;1.30;;
54259;SDS011;40172;53.022;7.012;2022-07-23T12:20:17;3.63;;;1.10;;
54259;SDS011;40172;53.022;7.012;2022-07-23T12:22:47;2.05;;;1.30;;
54259;SDS011;40172;53.022;7.012;2022-07-23T12:25:18;3.17;;;1.48;;
54259;SDS011;40172;53.022;7.012;2022-07-23T12:27:46;2.00;;;1.05;;
54259;SDS011;40172;53.022;7.012;2022-07-23T12:30:26;6.35;;;1.17;;
54259;SDS011;40172;53.022;7.012;2022-07-23T12:32:56;3.10;;;1.20;;
54259;SDS011;40172;53.022;7.012;2022-07-23T12:35:22;2.58;;;1.10;;
54259;SDS011;40172;53.022;7.012;2022-07-23T12:37:58;4.00;;;1.27;;
54259;SDS011;40172;53.022;7.012;2022-07-23T12:42:58;4.20;;;1.30;;
54259;SDS011;40172;53.022;7.012;2022-07-23T12:45:25;3.08;;;1.23;;
54259;SDS011;40172;53.022;7.012;2022-07-23T12:48:03;2.85;;;1.20;;
54259;SDS011;40172;53.022;7.012;2022-07-23T12:50:39;4.07;;;1.20;;
54259;SDS011;40172;53.022;7.012;2022-07-23T12:55:46;2.30;;;1.25;;
54259;SDS011;40172;53.022;7.012;2022-07-23T12:58:13;4.47;;;1.48;;
54259;SDS011;40172;53.022;7.012;2022-07-23T13:00:49;2.60;;;1.55;;
54259;SDS011;40172;53.022;7.012;2022-07-23T13:03:25;4.47;;;1.50;;
54259;SDS011;40172;53.022;7.012;2022-07-23T13:05:56;4.70;;;1.38;;
54259;SDS011;40172;53.022;7.012;2022-07-23T13:08:22;3.50;;;1.30;;
54259;SDS011;40172;53.022;7.012;2022-07-23T13:10:48;4.28;;;1.40;;
54259;SDS011;40172;53.022;7.012;2022-07-23T13:13:16;4.97;;;1.63;;
54259;SDS011;40172;53.022;7.012;2022-07-23T13:15:45;5.47;;;1.30;;
54259;SDS011;40172;53.022;7.012;2022-07-23T13:18:10;3.25;;;1.40;;
54259;SDS011;40172;53.022;7.012;2022-07-23T13:20:39;3.58;;;1.65;;
54259;SDS011;40172;53.022;7.012;2022-07-23T13:23:05;2.92;;;1.30;;
54259;SDS011;40172;53.022;7.012;2022-07-23T13:25:32;3.40;;;1.33;;
54259;SDS011;40172;53.022;7.012;2022-07-23T13:27:57;2.15;;;1.23;;
54259;SDS011;40172;53.022;7.012;2022-07-23T13:30:23;5.47;;;1.60;;
54259;SDS011;40172;53.022;7.012;2022-07-23T13:32:49;4.88;;;1.45;;
54259;SDS011;40172;53.022;7.012;2022-07-23T13:35:14;1.90;;;1.30;;
54259;SDS011;40172;53.022;7.012;2022-07-23T13:37:40;3.17;;;1.67;;
54259;SDS011;40172;53.022;7.012;2022-07-23T13:40:06;2.55;;;1.20;;
54259;SDS011;40172;53.022;7.012;2022-07-23T13:42:34;3.15;;;1.20;;
54259;SDS011;40172;53.022;7.012;2022-07-23T13:45:00;3.33;;;1.40;;
54259;SDS011;40172;53.022;7.012;2022-07-23T13:47:26;1.70;;;1.10;;
54259;SDS011;40172;53.022;7.012;2022-07-23T13:49:51;2.80;;;1.10;;
54259;SDS011;40172;53.022;7.012;2022-07-23T13:52:17;2.53;;;1.05;;
54259;SDS011;40172;53.022;7.012;2022-07-23T13:54:43;2.47;;;1.15;;
54259;SDS011;40172;53.022;7.012;2022-07-23T13:57:08;2.17;;;1.02;;
54259;SDS011;40172;53.022;7.012;2022-07-23T13:59:34;2.72;;;1.30;;
54259;SDS011;40172;53.022;7.012;2022-07-23T14:02:04;2.35;;;1.20;;
54259;SDS011;40172;53.022;7.012;2022-07-23T14:04:30;2.90;;;1.20;;
54259;SDS011;40172;53.022;7.012;2022-07-23T14:06:56;3.88;;;1.17;;
54259;SDS011;40172;53.022;7.012;2022-07-23T14:09:22;3.70;;;1.17;;
54259;SDS011;40172;53.022;7.012;2022-07-23T14:11:48;6.53;;;1.60;;
54259;SDS011;40172;53.022;7.012;2022-07-23T14:14:15;2.42;;;1.20;;
54259;SDS011;40172;53.022;7.012;2022-07-23T14:16:41;3.15;;;1.10;;
54259;SDS011;40172;53.022;7.012;2022-07-23T14:19:07;1.98;;;1.10;;
54259;SDS011;40172;53.022;7.012;2022-07-23T14:21:33;3.97;;;1.38;;
54259;SDS011;40172;53.022;7.012;2022-07-23T14:23:59;2.65;;;1.13;;
54259;SDS011;40172;53.022;7.012;2022-07-23T14:26:24;4.70;;;1.10;;
54259;SDS011;40172;53.022;7.012;2022-07-23T14:28:50;2.92;;;1.00;;
54259;SDS011;40172;53.022;7.012;2022-07-23T14:31:15;1.83;;;1.00;;
54259;SDS011;40172;53.022;7.012;2022-07-23T14:33:41;1.33;;;1.00;;
54259;SDS011;40172;53.022;7.012;2022-07-23T14:36:07;2.83;;;1.48;;
54259;SDS011;40172;53.022;7.012;2022-07-23T14:38:32;1.35;;;1.00;;
54259;SDS011;40172;53.022;7.012;2022-07-23T14:40:58;1.92;;;0.90;;
54259;SDS011;40172;53.022;7.012;2022-07-23T14:43:23;2.83;;;1.00;;
54259;SDS011;40172;53.022;7.012;2022-07-23T14:45:49;1.92;;;1.00;;
54259;SDS011;40172;53.022;7.012;2022-07-23T14:48:15;4.13;;;1.23;;
54259;SDS011;40172;53.022;7.012;2022-07-23T14:50:41;1.65;;;1.02;;
54259;SDS011;40172;53.022;7.012;2022-07-23T14:53:06;2.65;;;0.98;;
54259;SDS011;40172;53.022;7.012;2022-07-23T14:55:32;2.17;;;1.00;;
54259;SDS011;40172;53.022;7.012;2022-07-23T14:57:59;3.95;;;1.17;;
54259;SDS011;40172;53.022;7.012;2022-07-23T15:00:24;3.05;;;1.10;;
54259;SDS011;40172;53.022;7.012;2022-07-23T15:02:51;2.75;;;0.93;;
54259;SDS011;40172;53.022;7.012;2022-07-23T15:05:17;2.95;;;1.23;;
54259;SDS011;40172;53.022;7.012;2022-07-23T15:07:42;3.60;;;1.25;;
54259;SDS011;40172;53.022;7.012;2022-07-23T15:10:08;2.35;;;1.15;;
54259;SDS011;40172;53.022;7.012;2022-07-23T15:12:34;4.10;;;1.25;;
54259;SDS011;40172;53.022;7.012;2022-07-23T15:14:59;3.97;;;1.05;;
54259;SDS011;40172;53.022;7.012;2022-07-23T15:17:26;2.72;;;1.23;;